TimeCDT,TemperatureF,Dew PointF,Humidity,Sea Level PressureIn,VisibilityMPH,Wind Direction,Wind SpeedMPH,Gust SpeedMPH,PrecipitationIn,Events,Conditions,WindDirDegrees,DateUTC
12:15 AM,63.1,46.4,54,29.59,10.0,NNE,8.1,-,N/A,,Clear,20,2014-04-13 05:15:00
12:35 AM,62.1,46.4,56,29.60,10.0,NE,5.8,-,N/A,,Clear,40,2014-04-13 05:35:00
12:55 AM,61.3,46.8,59,29.60,10.0,NNE,9.2,-,N/A,,Scattered Clouds,20,2014-04-13 05:55:00
1:15 AM,61.2,47.3,60,29.60,10.0,NNE,10.4,-,N/A,,Scattered Clouds,30,2014-04-13 06:15:00
1:35 AM,60.8,47.8,62,29.59,10.0,NNE,11.5,-,N/A,,Scattered Clouds,20,2014-04-13 06:35:00
1:55 AM,60.1,48.2,65,29.59,10.0,NNE,9.2,-,N/A,,Clear,30,2014-04-13 06:55:00
2:15 AM,59.2,48.2,67,29.59,10.0,NNE,6.9,-,N/A,,Clear,20,2014-04-13 07:15:00
2:35 AM,58.6,48.2,68,29.59,10.0,NE,8.1,-,N/A,,Clear,40,2014-04-13 07:35:00
2:55 AM,58.3,49.1,71,29.58,10.0,NE,11.5,-,N/A,,Scattered Clouds,50,2014-04-13 07:55:00
3:15 AM,58.1,49.3,72,29.57,10.0,NE,15.0,18.4,N/A,,Scattered Clouds,40,2014-04-13 08:15:00
3:35 AM,58.5,50.0,73,29.58,10.0,NE,13.8,20.7,N/A,,Mostly Cloudy,40,2014-04-13 08:35:00
3:55 AM,58.5,50.0,73,29.58,10.0,NNE,17.3,21.9,N/A,,Overcast,30,2014-04-13 08:55:00
4:15 AM,57.9,49.5,73,29.57,10.0,NE,13.8,20.7,N/A,,Mostly Cloudy,40,2014-04-13 09:15:00
4:35 AM,57.4,49.3,74,29.57,10.0,NNE,15.0,20.7,N/A,,Mostly Cloudy,30,2014-04-13 09:35:00
4:55 AM,57.4,49.3,74,29.58,10.0,NNE,15.0,19.6,N/A,,Overcast,30,2014-04-13 09:55:00
5:15 AM,57.2,49.1,74,29.57,10.0,NNE,18.4,23.0,N/A,,Overcast,30,2014-04-13 10:15:00
5:30 AM,57.4,49.1,74,29.58,10.0,NNE,18.4,28.8,N/A,,Overcast,20,2014-04-13 10:30:00
5:55 AM,57.2,47.7,70,29.58,10.0,NNE,18.4,29.9,N/A,,Overcast,20,2014-04-13 10:55:00
6:15 AM,56.5,46.4,69,29.57,10.0,NNE,23.0,28.8,N/A,Thunderstorm,Thunderstorm,30,2014-04-13 11:15:00
6:35 AM,53.8,47.3,79,29.57,7.0,NNE,21.9,34.5,N/A,Rain-Thunderstorm,Light Thunderstorms and Rain,20,2014-04-13 11:35:00
7:15 AM,50.9,47.3,87,29.61,5.0,North,15.0,28.8,0.01,Rain,Light Rain,10,2014-04-13 12:15:00
7:35 AM,50.0,47.3,90,29.59,5.0,NNE,21.9,29.9,0.01,Rain-Thunderstorm,Light Thunderstorms and Rain,20,2014-04-13 12:35:00
7:55 AM,49.3,46.6,90,29.57,4.0,NNE,19.6,31.1,0.02,Rain,Light Rain,30,2014-04-13 12:55:00
8:15 AM,49.1,45.7,88,29.59,5.0,NE,21.9,39.1,N/A,Thunderstorm,Overcast,40,2014-04-13 13:15:00
8:35 AM,49.3,45.5,87,29.64,7.0,NNE,15.0,28.8,N/A,,Overcast,20,2014-04-13 13:35:00
8:55 AM,48.9,45.5,88,29.63,5.0,NNE,19.6,29.9,N/A,,Drizzle,20,2014-04-13 13:55:00
9:15 AM,48.7,45.7,89,29.61,4.0,NNE,19.6,32.2,N/A,Rain-Thunderstorm,Light Thunderstorms and Rain,30,2014-04-13 14:15:00
9:35 AM,48.7,45.9,90,29.60,4.0,NE,20.7,29.9,N/A,,Light Drizzle,40,2014-04-13 14:35:00
9:55 AM,49.1,46.0,89,29.60,4.0,NE,23.0,31.1,N/A,Thunderstorm,Unknown,40,2014-04-13 14:55:00
10:15 AM,49.1,45.7,88,29.59,4.0,NE,23.0,36.8,N/A,Thunderstorm,Overcast,40,2014-04-13 15:15:00
10:35 AM,48.6,45.1,88,29.62,7.0,NE,23.0,34.5,N/A,,Overcast,40,2014-04-13 15:35:00
10:55 AM,48.2,45.1,89,29.65,4.0,NNE,20.7,31.1,N/A,Rain,Light Rain,20,2014-04-13 15:55:00
11:15 AM,47.5,44.2,89,29.66,4.0,NNE,19.6,36.8,N/A,Rain,Rain,20,2014-04-13 16:15:00
11:35 AM,47.3,44.6,90,29.66,3.0,NNE,20.7,31.1,0.01,Rain-Thunderstorm,Rain,20,2014-04-13 16:35:00
11:55 AM,46.8,43.7,89,29.66,2.5,NNE,23.0,35.7,0.03,Rain,Rain,20,2014-04-13 16:55:00
12:15 PM,46.4,43.7,90,29.68,1.2,NNE,19.6,26.5,0.08,Rain-Thunderstorm,Light Thunderstorms and Rain,20,2014-04-13 17:15:00
12:35 PM,45.0,42.8,92,29.68,3.0,North,20.7,27.6,0.11,Rain-Thunderstorm,Light Thunderstorms and Rain,10,2014-04-13 17:35:00
1:15 PM,43.5,40.8,90,29.69,5.0,North,29.9,36.8,N/A,Thunderstorm,Unknown,360,2014-04-13 18:15:00
1:35 PM,42.8,39.4,88,29.69,10.0,North,20.7,34.5,N/A,Thunderstorm,Overcast,360,2014-04-13 18:35:00
1:55 PM,42.3,38.5,86,29.71,10.0,North,19.6,34.5,N/A,,Overcast,350,2014-04-13 18:55:00
2:15 PM,40.1,36.1,86,29.70,10.0,North,28.8,39.1,N/A,,Overcast,360,2014-04-13 19:15:00
2:35 PM,39.0,35.4,87,29.71,10.0,North,26.5,39.1,N/A,,Light Drizzle,360,2014-04-13 19:35:00
2:55 PM,37.4,33.4,86,29.71,10.0,North,27.6,42.6,N/A,,Overcast,10,2014-04-13 19:55:00
3:15 PM,36.9,32.4,84,29.71,10.0,North,29.9,42.6,N/A,,Overcast,360,2014-04-13 20:15:00
3:35 PM,36.5,32.0,84,29.74,10.0,North,21.9,35.7,N/A,,Overcast,360,2014-04-13 20:35:00
3:55 PM,36.0,32.0,86,29.74,10.0,North,27.6,36.8,N/A,,Overcast,360,2014-04-13 20:55:00
4:35 PM,34.0,30.9,89,29.77,7.0,North,29.9,40.3,N/A,Rain,Light Rain,360,2014-04-13 21:35:00
4:55 PM,33.8,31.1,90,29.77,4.0,North,27.6,39.1,N/A,Snow,Light Snow,360,2014-04-13 21:55:00
5:15 PM,33.6,31.3,91,29.77,1.8,North,24.2,40.3,N/A,Snow,Light Snow,350,2014-04-13 22:15:00
5:35 PM,33.1,31.1,92,29.77,2.0,North,21.9,38.0,N/A,,Overcast,360,2014-04-13 22:35:00
5:55 PM,33.1,31.1,92,29.78,2.0,North,23.0,38.0,N/A,Snow,Light Snow,360,2014-04-13 22:55:00
6:15 PM,33.1,31.1,92,29.80,2.5,North,25.3,39.1,N/A,,Overcast,360,2014-04-13 23:15:00
6:35 PM,33.3,31.1,92,29.80,3.0,North,24.2,35.7,N/A,Snow,Light Snow,360,2014-04-13 23:35:00
6:55 PM,33.1,30.9,92,29.81,2.5,North,24.2,33.4,N/A,Snow,Light Snow,350,2014-04-13 23:55:00
7:15 PM,32.9,31.1,93,29.83,1.0,NNW,21.9,31.1,N/A,Snow,Light Snow,340,2014-04-14 00:15:00
7:35 PM,32.7,31.1,94,29.85,0.8,North,16.1,31.1,N/A,Snow,Light Snow,350,2014-04-14 00:35:00
7:55 PM,32.7,31.1,94,29.86,1.8,North,18.4,28.8,N/A,Snow,Light Snow,350,2014-04-14 00:55:00
8:15 PM,32.7,31.5,95,29.88,2.0,North,20.7,28.8,N/A,Snow,Light Snow,350,2014-04-14 01:15:00
8:35 PM,32.9,31.1,93,29.89,2.0,North,23.0,34.5,N/A,Snow,Light Snow,350,2014-04-14 01:35:00
8:55 PM,32.9,30.9,92,29.90,4.0,North,24.2,31.1,N/A,Snow,Light Snow,350,2014-04-14 01:55:00
9:15 PM,33.1,30.7,91,29.93,7.0,North,23.0,33.4,N/A,Snow,Light Snow,350,2014-04-14 02:15:00
9:35 PM,33.6,30.2,87,29.94,7.0,North,20.7,27.6,N/A,Snow,Light Snow,350,2014-04-14 02:35:00
9:55 PM,33.8,30.0,86,29.96,4.0,North,16.1,28.8,N/A,Snow,Light Snow,360,2014-04-14 02:55:00
10:15 PM,34.7,29.1,80,29.97,10.0,North,15.0,23.0,N/A,,Overcast,350,2014-04-14 03:15:00
10:35 PM,35.1,28.4,77,29.97,10.0,North,17.3,29.9,N/A,,Overcast,360,2014-04-14 03:35:00
10:55 PM,35.2,27.7,74,29.97,10.0,North,26.5,32.2,N/A,,Overcast,360,2014-04-14 03:55:00
11:15 PM,35.6,27.3,72,29.97,10.0,North,21.9,31.1,N/A,,Overcast,360,2014-04-14 04:15:00
11:35 PM,35.4,27.5,73,29.97,10.0,North,16.1,26.5,N/A,,Overcast,360,2014-04-14 04:35:00
11:55 PM,35.1,27.5,74,29.98,10.0,North,16.1,25.3,N/A,,Overcast,360,2014-04-14 04:55:00